sensor_id;sensor_type;location;lat;lon;timestamp;pressure;altitude;pressure_sealevel;temperature;humidity
56142;BME280;42018;48.588;10.836;2024-03-25T00:02:39;95931.97;;;4.76;72.91
56142;BME280;42018;48.588;10.836;2024-03-25T00:05:25;95938.09;;;4.87;72.13
56142;BME280;42018;48.588;10.836;2024-03-25T00:08:10;95940.44;;;4.83;72.40
56142;BME280;42018;48.588;10.836;2024-03-25T00:10:56;95939.53;;;4.72;72.36
56142;BME280;42018;48.588;10.836;2024-03-25T00:13:42;95942.34;;;4.88;72.52
56142;BME280;42018;48.588;10.836;2024-03-25T00:16:28;95939.41;;;4.84;72.15
56142;BME280;42018;48.588;10.836;2024-03-25T00:19:13;95943.72;;;4.95;71.75
56142;BME280;42018;48.588;10.836;2024-03-25T00:21:59;95944.53;;;5.01;71.56
56142;BME280;42018;48.588;10.836;2024-03-25T00:24:45;95936.56;;;4.91;71.35
56142;BME280;42018;48.588;10.836;2024-03-25T00:27:31;95938.72;;;4.67;72.48
56142;BME280;42018;48.588;10.836;2024-03-25T00:30:17;95940.84;;;4.70;72.95
56142;BME280;42018;48.588;10.836;2024-03-25T00:33:03;95939.84;;;5.03;71.70
56142;BME280;42018;48.588;10.836;2024-03-25T00:35:49;95943.56;;;5.07;71.30
56142;BME280;42018;48.588;10.836;2024-03-25T00:38:35;95940.38;;;5.05;70.62
56142;BME280;42018;48.588;10.836;2024-03-25T00:41:20;95937.97;;;4.98;70.63
56142;BME280;42018;48.588;10.836;2024-03-25T00:44:06;95946.47;;;5.11;70.40
56142;BME280;42018;48.588;10.836;2024-03-25T00:46:52;95943.06;;;5.10;70.52
56142;BME280;42018;48.588;10.836;2024-03-25T00:49:38;95945.22;;;5.18;70.43
56142;BME280;42018;48.588;10.836;2024-03-25T00:52:23;95939.88;;;5.08;71.06
56142;BME280;42018;48.588;10.836;2024-03-25T00:55:09;95943.25;;;5.03;71.01
56142;BME280;42018;48.588;10.836;2024-03-25T00:57:55;95943.53;;;5.02;70.68
56142;BME280;42018;48.588;10.836;2024-03-25T01:00:40;95943.25;;;5.03;70.87
56142;BME280;42018;48.588;10.836;2024-03-25T01:03:26;95949.69;;;4.91;71.04
56142;BME280;42018;48.588;10.836;2024-03-25T01:06:11;95935.66;;;4.75;71.75
56142;BME280;42018;48.588;10.836;2024-03-25T01:08:57;95937.69;;;4.95;71.31
56142;BME280;42018;48.588;10.836;2024-03-25T01:11:42;95931.78;;;4.83;71.38
56142;BME280;42018;48.588;10.836;2024-03-25T01:14:28;95933.88;;;4.80;72.00
56142;BME280;42018;48.588;10.836;2024-03-25T01:17:13;95937.03;;;4.83;72.30
56142;BME280;42018;48.588;10.836;2024-03-25T01:19:59;95926.06;;;4.91;72.00
56142;BME280;42018;48.588;10.836;2024-03-25T01:22:44;95923.91;;;4.83;71.45
56142;BME280;42018;48.588;10.836;2024-03-25T01:25:31;95923.88;;;4.77;72.41
56142;BME280;42018;48.588;10.836;2024-03-25T01:28:16;95921.78;;;4.79;72.34
56142;BME280;42018;48.588;10.836;2024-03-25T01:31:02;95922.06;;;4.83;71.87
56142;BME280;42018;48.588;10.836;2024-03-25T01:33:48;95928.66;;;4.86;72.05
56142;BME280;42018;48.588;10.836;2024-03-25T01:36:33;95924.47;;;4.85;71.82
56142;BME280;42018;48.588;10.836;2024-03-25T01:39:20;95928.03;;;4.73;72.30
56142;BME280;42018;48.588;10.836;2024-03-25T01:42:06;95922.75;;;5.00;71.27
56142;BME280;42018;48.588;10.836;2024-03-25T01:44:51;95919.88;;;5.02;71.52
56142;BME280;42018;48.588;10.836;2024-03-25T01:47:37;95923.03;;;5.04;71.07
56142;BME280;42018;48.588;10.836;2024-03-25T01:50:25;95916.03;;;5.15;71.06
56142;BME280;42018;48.588;10.836;2024-03-25T01:53:12;95926.53;;;4.83;72.00
56142;BME280;42018;48.588;10.836;2024-03-25T01:55:59;95928.09;;;4.84;72.03
56142;BME280;42018;48.588;10.836;2024-03-25T01:58:45;95926.34;;;4.94;72.15
56142;BME280;42018;48.588;10.836;2024-03-25T02:01:31;95926.31;;;5.16;71.48
56142;BME280;42018;48.588;10.836;2024-03-25T02:04:17;95924.28;;;4.96;71.78
56142;BME280;42018;48.588;10.836;2024-03-25T02:07:02;95930.19;;;4.82;72.41
56142;BME280;42018;48.588;10.836;2024-03-25T02:09:49;95927.56;;;4.82;72.20
56142;BME280;42018;48.588;10.836;2024-03-25T02:12:35;95928.22;;;4.67;73.20
56142;BME280;42018;48.588;10.836;2024-03-25T02:15:21;95925.88;;;4.97;71.83
56142;BME280;42018;48.588;10.836;2024-03-25T02:18:06;95922.28;;;5.09;71.77
56142;BME280;42018;48.588;10.836;2024-03-25T02:20:52;95922.34;;;4.87;72.02
56142;BME280;42018;48.588;10.836;2024-03-25T02:23:39;95924.88;;;5.03;71.61
56142;BME280;42018;48.588;10.836;2024-03-25T02:26:28;95922.25;;;4.76;72.62
56142;BME280;42018;48.588;10.836;2024-03-25T02:29:14;95918.00;;;4.97;72.02
56142;BME280;42018;48.588;10.836;2024-03-25T02:31:59;95920.50;;;5.14;71.22
56142;BME280;42018;48.588;10.836;2024-03-25T02:34:47;95918.13;;;4.80;72.22
56142;BME280;42018;48.588;10.836;2024-03-25T02:37:33;95916.50;;;5.07;71.45
56142;BME280;42018;48.588;10.836;2024-03-25T02:40:19;95905.72;;;5.03;71.41
56142;BME280;42018;48.588;10.836;2024-03-25T02:43:06;95916.22;;;5.03;71.47
56142;BME280;42018;48.588;10.836;2024-03-25T02:45:52;95916.81;;;4.83;71.85
56142;BME280;42018;48.588;10.836;2024-03-25T02:48:38;95923.31;;;4.75;72.30
56142;BME280;42018;48.588;10.836;2024-03-25T02:51:23;95921.56;;;4.86;71.66
56142;BME280;42018;48.588;10.836;2024-03-25T02:54:09;95924.75;;;4.88;71.59
56142;BME280;42018;48.588;10.836;2024-03-25T02:56:54;95930.72;;;4.84;71.88
56142;BME280;42018;48.588;10.836;2024-03-25T02:59:40;95929.06;;;5.04;71.28
56142;BME280;42018;48.588;10.836;2024-03-25T03:02:26;95925.53;;;4.89;71.81
56142;BME280;42018;48.588;10.836;2024-03-25T03:05:11;95927.78;;;5.07;71.63
56142;BME280;42018;48.588;10.836;2024-03-25T03:07:57;95922.81;;;5.06;71.65
56142;BME280;42018;48.588;10.836;2024-03-25T03:10:42;95928.06;;;4.78;72.07
56142;BME280;42018;48.588;10.836;2024-03-25T03:13:28;95935.09;;;5.00;72.23
56142;BME280;42018;48.588;10.836;2024-03-25T03:16:13;95934.41;;;5.15;71.57
56142;BME280;42018;48.588;10.836;2024-03-25T03:18:59;95934.81;;;5.01;71.64
56142;BME280;42018;48.588;10.836;2024-03-25T03:21:44;95930.69;;;5.06;71.36
56142;BME280;42018;48.588;10.836;2024-03-25T03:24:30;95935.19;;;4.83;71.63
56142;BME280;42018;48.588;10.836;2024-03-25T03:27:16;95940.41;;;4.78;72.21
56142;BME280;42018;48.588;10.836;2024-03-25T03:30:01;95932.25;;;4.79;72.06
56142;BME280;42018;48.588;10.836;2024-03-25T03:32:47;95931.03;;;4.87;72.01
56142;BME280;42018;48.588;10.836;2024-03-25T03:35:33;95925.34;;;4.68;72.04
56142;BME280;42018;48.588;10.836;2024-03-25T03:38:19;95926.31;;;5.16;70.91
56142;BME280;42018;48.588;10.836;2024-03-25T03:41:04;95933.28;;;4.73;71.96
56142;BME280;42018;48.588;10.836;2024-03-25T03:43:50;95931.75;;;4.77;71.96
56142;BME280;42018;48.588;10.836;2024-03-25T03:46:35;95928.69;;;4.91;71.57
56142;BME280;42018;48.588;10.836;2024-03-25T03:49:21;95925.16;;;4.75;71.64
56142;BME280;42018;48.588;10.836;2024-03-25T03:52:06;95929.28;;;4.98;71.17
56142;BME280;42018;48.588;10.836;2024-03-25T03:54:52;95922.31;;;4.82;71.29
56142;BME280;42018;48.588;10.836;2024-03-25T03:57:37;95940.50;;;4.88;71.11
56142;BME280;42018;48.588;10.836;2024-03-25T04:00:23;95932.16;;;4.69;71.96
56142;BME280;42018;48.588;10.836;2024-03-25T04:03:08;95938.88;;;4.82;71.83
56142;BME280;42018;48.588;10.836;2024-03-25T04:05:54;95937.00;;;5.10;70.93
56142;BME280;42018;48.588;10.836;2024-03-25T04:08:41;95937.63;;;4.90;71.55
56142;BME280;42018;48.588;10.836;2024-03-25T04:11:26;95941.56;;;4.65;71.96
56142;BME280;42018;48.588;10.836;2024-03-25T04:14:12;95939.75;;;4.93;71.46
56142;BME280;42018;48.588;10.836;2024-03-25T04:16:57;95948.66;;;4.92;71.57
56142;BME280;42018;48.588;10.836;2024-03-25T04:19:44;95942.97;;;4.73;71.62
56142;BME280;42018;48.588;10.836;2024-03-25T04:22:29;95946.78;;;4.87;70.89
56142;BME280;42018;48.588;10.836;2024-03-25T04:25:15;95942.94;;;4.95;70.93
56142;BME280;42018;48.588;10.836;2024-03-25T04:28:00;95950.22;;;4.88;71.07
56142;BME280;42018;48.588;10.836;2024-03-25T04:30:53;95946.00;;;5.19;70.20
56142;BME280;42018;48.588;10.836;2024-03-25T04:33:38;95953.81;;;5.41;69.01
56142;BME280;42018;48.588;10.836;2024-03-25T04:36:24;95956.06;;;5.27;69.49
56142;BME280;42018;48.588;10.836;2024-03-25T04:39:09;95947.72;;;5.35;69.20
56142;BME280;42018;48.588;10.836;2024-03-25T04:41:56;95946.59;;;5.26;69.36
56142;BME280;42018;48.588;10.836;2024-03-25T04:44:43;95944.50;;;5.28;69.12
56142;BME280;42018;48.588;10.836;2024-03-25T04:47:28;95955.13;;;5.11;69.52
56142;BME280;42018;48.588;10.836;2024-03-25T04:50:14;95957.44;;;5.02;70.04
56142;BME280;42018;48.588;10.836;2024-03-25T04:53:00;95958.09;;;4.66;71.61
56142;BME280;42018;48.588;10.836;2024-03-25T04:55:45;95962.78;;;4.86;71.08
56142;BME280;42018;48.588;10.836;2024-03-25T04:58:31;95967.84;;;4.92;70.67
56142;BME280;42018;48.588;10.836;2024-03-25T05:01:16;95966.75;;;4.88;71.00
56142;BME280;42018;48.588;10.836;2024-03-25T05:04:02;95966.28;;;4.69;71.85
56142;BME280;42018;48.588;10.836;2024-03-25T05:06:48;95972.34;;;4.70;71.83
56142;BME280;42018;48.588;10.836;2024-03-25T05:09:33;95974.75;;;4.76;72.10
56142;BME280;42018;48.588;10.836;2024-03-25T05:12:19;95971.28;;;4.98;71.32
56142;BME280;42018;48.588;10.836;2024-03-25T05:15:04;95973.38;;;4.96;71.27
56142;BME280;42018;48.588;10.836;2024-03-25T05:17:51;95980.34;;;5.12;70.85
56142;BME280;42018;48.588;10.836;2024-03-25T05:20:36;95987.72;;;5.15;70.63
56142;BME280;42018;48.588;10.836;2024-03-25T05:23:22;95994.59;;;4.94;71.08
56142;BME280;42018;48.588;10.836;2024-03-25T05:26:08;95991.41;;;4.65;72.46
56142;BME280;42018;48.588;10.836;2024-03-25T05:28:57;95994.13;;;4.70;72.09
56142;BME280;42018;48.588;10.836;2024-03-25T05:31:58;95991.56;;;4.53;72.96
56142;BME280;42018;48.588;10.836;2024-03-25T05:34:44;95994.66;;;4.72;72.47
56142;BME280;42018;48.588;10.836;2024-03-25T05:37:29;95993.50;;;4.63;72.65
56142;BME280;42018;48.588;10.836;2024-03-25T05:40:18;95994.53;;;4.84;72.16
56142;BME280;42018;48.588;10.836;2024-03-25T05:43:04;95999.91;;;4.72;72.33
56142;BME280;42018;48.588;10.836;2024-03-25T05:45:53;96001.84;;;4.82;72.18
56142;BME280;42018;48.588;10.836;2024-03-25T05:48:39;95997.44;;;4.88;71.95
56142;BME280;42018;48.588;10.836;2024-03-25T05:51:24;96003.31;;;4.95;71.59
56142;BME280;42018;48.588;10.836;2024-03-25T05:54:10;96011.22;;;5.00;71.44
56142;BME280;42018;48.588;10.836;2024-03-25T05:56:56;96015.00;;;4.60;72.43
56142;BME280;42018;48.588;10.836;2024-03-25T05:59:41;96019.91;;;4.78;72.15
56142;BME280;42018;48.588;10.836;2024-03-25T06:02:27;96018.94;;;4.85;72.28
56142;BME280;42018;48.588;10.836;2024-03-25T06:05:12;96026.63;;;4.69;73.00
56142;BME280;42018;48.588;10.836;2024-03-25T06:07:58;96025.84;;;4.47;73.82
56142;BME280;42018;48.588;10.836;2024-03-25T06:10:44;96031.22;;;5.06;71.91
56142;BME280;42018;48.588;10.836;2024-03-25T06:13:29;96031.28;;;5.11;71.19
56142;BME280;42018;48.588;10.836;2024-03-25T06:16:15;96026.66;;;4.96;71.88
56142;BME280;42018;48.588;10.836;2024-03-25T06:19:00;96031.56;;;5.15;71.35
56142;BME280;42018;48.588;10.836;2024-03-25T06:21:46;96031.94;;;5.01;71.66
56142;BME280;42018;48.588;10.836;2024-03-25T06:24:31;96028.34;;;5.08;71.27
56142;BME280;42018;48.588;10.836;2024-03-25T06:27:17;96026.97;;;5.00;71.43
56142;BME280;42018;48.588;10.836;2024-03-25T06:30:03;96023.78;;;4.98;71.44
56142;BME280;42018;48.588;10.836;2024-03-25T06:33:08;96016.84;;;4.87;72.10
56142;BME280;42018;48.588;10.836;2024-03-25T06:36:13;96022.09;;;4.87;72.90
56142;BME280;42018;48.588;10.836;2024-03-25T06:38:58;96023.25;;;4.96;72.75
56142;BME280;42018;48.588;10.836;2024-03-25T06:41:44;96018.88;;;4.79;73.26
56142;BME280;42018;48.588;10.836;2024-03-25T06:44:29;96028.66;;;5.11;72.82
56142;BME280;42018;48.588;10.836;2024-03-25T06:47:15;96030.53;;;4.89;72.31
56142;BME280;42018;48.588;10.836;2024-03-25T06:50:00;96027.06;;;5.10;72.13
56142;BME280;42018;48.588;10.836;2024-03-25T06:52:46;96025.38;;;5.26;72.54
56142;BME280;42018;48.588;10.836;2024-03-25T06:55:32;96015.00;;;5.09;72.54
56142;BME280;42018;48.588;10.836;2024-03-25T06:58:21;96023.19;;;4.91;72.69
56142;BME280;42018;48.588;10.836;2024-03-25T07:01:08;96030.69;;;5.04;73.42
56142;BME280;42018;48.588;10.836;2024-03-25T07:03:53;96024.91;;;5.02;72.90
56142;BME280;42018;48.588;10.836;2024-03-25T07:06:39;96026.03;;;5.11;72.38
56142;BME280;42018;48.588;10.836;2024-03-25T07:09:25;96029.09;;;5.03;72.70
56142;BME280;42018;48.588;10.836;2024-03-25T07:12:11;96028.34;;;5.08;72.97
56142;BME280;42018;48.588;10.836;2024-03-25T07:14:57;96026.63;;;5.18;72.05
56142;BME280;42018;48.588;10.836;2024-03-25T07:17:42;96026.97;;;5.00;72.54
56142;BME280;42018;48.588;10.836;2024-03-25T07:20:28;96023.06;;;5.02;72.68
56142;BME280;42018;48.588;10.836;2024-03-25T07:23:13;96023.47;;;5.16;72.30
56142;BME280;42018;48.588;10.836;2024-03-25T07:25:59;96029.69;;;5.37;71.25
56142;BME280;42018;48.588;10.836;2024-03-25T07:28:44;96029.13;;;5.62;70.74
56142;BME280;42018;48.588;10.836;2024-03-25T07:31:30;96033.25;;;5.53;70.56
56142;BME280;42018;48.588;10.836;2024-03-25T07:34:16;96031.22;;;5.65;71.04
56142;BME280;42018;48.588;10.836;2024-03-25T07:37:05;96029.91;;;5.63;70.89
56142;BME280;42018;48.588;10.836;2024-03-25T07:39:51;96023.28;;;5.55;71.63
56142;BME280;42018;48.588;10.836;2024-03-25T07:42:37;96026.56;;;6.10;70.80
56142;BME280;42018;48.588;10.836;2024-03-25T07:45:23;96027.06;;;6.02;69.33
56142;BME280;42018;48.588;10.836;2024-03-25T07:48:09;96022.59;;;6.02;69.42
56142;BME280;42018;48.588;10.836;2024-03-25T07:50:54;96026.09;;;6.18;67.99
56142;BME280;42018;48.588;10.836;2024-03-25T07:53:40;96024.16;;;6.51;67.18
56142;BME280;42018;48.588;10.836;2024-03-25T07:56:25;96026.53;;;6.52;67.53
56142;BME280;42018;48.588;10.836;2024-03-25T07:59:11;96025.09;;;6.29;67.61
56142;BME280;42018;48.588;10.836;2024-03-25T08:01:56;96028.06;;;5.95;67.94
56142;BME280;42018;48.588;10.836;2024-03-25T08:04:42;96031.94;;;5.88;69.76
56142;BME280;42018;48.588;10.836;2024-03-25T08:07:27;96032.47;;;6.32;69.21
56142;BME280;42018;48.588;10.836;2024-03-25T08:10:13;96034.38;;;6.37;68.95
56142;BME280;42018;48.588;10.836;2024-03-25T08:12:59;96033.16;;;6.60;68.77
56142;BME280;42018;48.588;10.836;2024-03-25T08:15:44;96032.78;;;6.36;67.33
56142;BME280;42018;48.588;10.836;2024-03-25T08:18:30;96029.22;;;6.62;68.49
56142;BME280;42018;48.588;10.836;2024-03-25T08:21:16;96022.38;;;6.66;67.34
56142;BME280;42018;48.588;10.836;2024-03-25T08:24:01;96022.47;;;6.87;68.28
56142;BME280;42018;48.588;10.836;2024-03-25T08:26:47;96028.53;;;6.92;66.69
56142;BME280;42018;48.588;10.836;2024-03-25T08:29:33;96024.13;;;7.39;64.77
56142;BME280;42018;48.588;10.836;2024-03-25T08:32:19;96027.84;;;7.63;63.89
56142;BME280;42018;48.588;10.836;2024-03-25T08:35:05;96024.91;;;7.29;63.75
56142;BME280;42018;48.588;10.836;2024-03-25T08:37:50;96020.41;;;7.14;64.56
56142;BME280;42018;48.588;10.836;2024-03-25T08:40:36;96017.03;;;7.55;64.49
56142;BME280;42018;48.588;10.836;2024-03-25T08:43:21;96015.72;;;7.37;64.96
56142;BME280;42018;48.588;10.836;2024-03-25T08:46:07;96014.09;;;7.26;64.31
56142;BME280;42018;48.588;10.836;2024-03-25T08:48:52;96017.81;;;7.86;64.15
56142;BME280;42018;48.588;10.836;2024-03-25T08:51:38;96007.50;;;8.10;62.60
56142;BME280;42018;48.588;10.836;2024-03-25T08:54:23;96016.13;;;8.36;60.99
56142;BME280;42018;48.588;10.836;2024-03-25T08:57:09;96010.88;;;8.31;60.36
56142;BME280;42018;48.588;10.836;2024-03-25T08:59:55;96007.97;;;8.48;60.41
56142;BME280;42018;48.588;10.836;2024-03-25T09:02:40;95998.47;;;8.36;59.57
56142;BME280;42018;48.588;10.836;2024-03-25T09:05:26;96001.91;;;8.22;60.67
56142;BME280;42018;48.588;10.836;2024-03-25T09:08:12;95991.78;;;8.65;57.08
56142;BME280;42018;48.588;10.836;2024-03-25T09:10:57;95982.38;;;8.38;57.89
56142;BME280;42018;48.588;10.836;2024-03-25T09:13:49;95991.59;;;8.51;58.70
56142;BME280;42018;48.588;10.836;2024-03-25T09:16:35;95984.66;;;9.15;60.35
56142;BME280;42018;48.588;10.836;2024-03-25T09:19:20;95987.44;;;9.33;58.23
56142;BME280;42018;48.588;10.836;2024-03-25T09:22:06;95986.06;;;9.70;57.53
56142;BME280;42018;48.588;10.836;2024-03-25T09:24:52;95976.00;;;10.01;55.13
56142;BME280;42018;48.588;10.836;2024-03-25T09:27:37;95977.47;;;10.13;54.83
56142;BME280;42018;48.588;10.836;2024-03-25T09:30:23;95977.44;;;10.18;53.54
56142;BME280;42018;48.588;10.836;2024-03-25T09:33:08;95978.13;;;9.99;53.59
56142;BME280;42018;48.588;10.836;2024-03-25T09:35:54;95972.44;;;9.87;52.42
56142;BME280;42018;48.588;10.836;2024-03-25T09:38:39;95971.16;;;10.08;51.94
56142;BME280;42018;48.588;10.836;2024-03-25T09:41:28;95968.06;;;10.30;51.25
56142;BME280;42018;48.588;10.836;2024-03-25T09:44:18;95970.53;;;9.64;51.99
56142;BME280;42018;48.588;10.836;2024-03-25T09:47:04;95964.03;;;9.51;54.11
56142;BME280;42018;48.588;10.836;2024-03-25T09:49:51;95954.78;;;9.82;52.32
56142;BME280;42018;48.588;10.836;2024-03-25T09:52:40;95954.41;;;10.18;52.57
56142;BME280;42018;48.588;10.836;2024-03-25T09:55:25;95944.34;;;10.63;51.59
56142;BME280;42018;48.588;10.836;2024-03-25T09:58:11;95943.31;;;10.83;50.76
56142;BME280;42018;48.588;10.836;2024-03-25T10:00:56;95951.06;;;10.55;51.63
56142;BME280;42018;48.588;10.836;2024-03-25T10:03:43;95943.75;;;10.90;48.51
56142;BME280;42018;48.588;10.836;2024-03-25T10:06:29;95934.25;;;11.22;49.84
56142;BME280;42018;48.588;10.836;2024-03-25T10:09:19;95942.75;;;10.86;48.21
56142;BME280;42018;48.588;10.836;2024-03-25T10:12:05;95942.00;;;10.62;47.27
56142;BME280;42018;48.588;10.836;2024-03-25T10:14:50;95937.69;;;10.66;47.63
56142;BME280;42018;48.588;10.836;2024-03-25T10:17:37;95938.59;;;10.37;46.73
56142;BME280;42018;48.588;10.836;2024-03-25T10:20:22;95932.25;;;10.57;48.25
56142;BME280;42018;48.588;10.836;2024-03-25T10:23:10;95927.13;;;11.03;50.97
56142;BME280;42018;48.588;10.836;2024-03-25T10:25:56;95919.03;;;11.46;47.17
56142;BME280;42018;48.588;10.836;2024-03-25T10:28:42;95916.66;;;11.45;46.51
56142;BME280;42018;48.588;10.836;2024-03-25T10:31:28;95910.69;;;11.53;46.65
56142;BME280;42018;48.588;10.836;2024-03-25T10:34:16;95911.91;;;11.09;45.35
56142;BME280;42018;48.588;10.836;2024-03-25T10:37:03;95906.72;;;10.85;45.98
56142;BME280;42018;48.588;10.836;2024-03-25T10:39:50;95896.91;;;10.86;45.24
56142;BME280;42018;48.588;10.836;2024-03-25T10:42:41;95893.47;;;10.85;43.00
56142;BME280;42018;48.588;10.836;2024-03-25T10:45:32;95892.22;;;11.62;43.58
56142;BME280;42018;48.588;10.836;2024-03-25T10:51:12;95882.38;;;11.48;42.19
56142;BME280;42018;48.588;10.836;2024-03-25T10:53:58;95883.06;;;11.40;44.92
56142;BME280;42018;48.588;10.836;2024-03-25T10:56:44;95872.06;;;11.93;43.58
56142;BME280;42018;48.588;10.836;2024-03-25T10:59:30;95865.97;;;12.20;42.66
56142;BME280;42018;48.588;10.836;2024-03-25T11:02:16;95869.41;;;12.21;42.08
56142;BME280;42018;48.588;10.836;2024-03-25T11:05:03;95866.91;;;11.23;40.51
56142;BME280;42018;48.588;10.836;2024-03-25T11:07:48;95860.44;;;11.29;40.16
56142;BME280;42018;48.588;10.836;2024-03-25T11:10:39;95861.00;;;11.26;40.67
56142;BME280;42018;48.588;10.836;2024-03-25T11:13:26;95845.88;;;11.26;39.22
56142;BME280;42018;48.588;10.836;2024-03-25T11:16:12;95837.03;;;11.64;40.51
56142;BME280;42018;48.588;10.836;2024-03-25T11:19:02;95826.72;;;12.17;36.95
56142;BME280;42018;48.588;10.836;2024-03-25T11:22:09;95820.25;;;12.46;37.78
56142;BME280;42018;48.588;10.836;2024-03-25T11:25:05;95819.56;;;12.40;36.86
56142;BME280;42018;48.588;10.836;2024-03-25T11:27:51;95806.19;;;11.95;36.21
56142;BME280;42018;48.588;10.836;2024-03-25T11:30:37;95810.19;;;11.79;35.60
56142;BME280;42018;48.588;10.836;2024-03-25T11:33:23;95806.78;;;12.06;35.75
56142;BME280;42018;48.588;10.836;2024-03-25T11:36:10;95803.44;;;12.37;37.06
56142;BME280;42018;48.588;10.836;2024-03-25T11:39:05;95800.22;;;12.62;36.04
56142;BME280;42018;48.588;10.836;2024-03-25T11:41:54;95804.06;;;12.70;35.92
56142;BME280;42018;48.588;10.836;2024-03-25T11:44:40;95804.69;;;12.76;36.42
56142;BME280;42018;48.588;10.836;2024-03-25T11:47:28;95802.22;;;12.79;35.89
56142;BME280;42018;48.588;10.836;2024-03-25T11:50:16;95798.59;;;12.53;37.10
56142;BME280;42018;48.588;10.836;2024-03-25T11:53:04;95794.63;;;12.28;36.56
56142;BME280;42018;48.588;10.836;2024-03-25T11:55:50;95795.44;;;12.14;36.79
56142;BME280;42018;48.588;10.836;2024-03-25T11:58:37;95791.28;;;12.58;37.41
56142;BME280;42018;48.588;10.836;2024-03-25T12:01:23;95779.63;;;12.90;37.19
56142;BME280;42018;48.588;10.836;2024-03-25T12:04:15;95782.72;;;13.06;36.92
56142;BME280;42018;48.588;10.836;2024-03-25T12:07:01;95769.78;;;12.91;36.33
56142;BME280;42018;48.588;10.836;2024-03-25T12:09:47;95776.22;;;12.31;36.23
56142;BME280;42018;48.588;10.836;2024-03-25T12:12:51;95779.47;;;12.64;37.10
56142;BME280;42018;48.588;10.836;2024-03-25T12:15:39;95764.91;;;12.84;35.87
56142;BME280;42018;48.588;10.836;2024-03-25T12:18:25;95764.13;;;12.25;35.78
56142;BME280;42018;48.588;10.836;2024-03-25T12:21:11;95758.00;;;12.61;36.61
56142;BME280;42018;48.588;10.836;2024-03-25T12:23:56;95760.72;;;12.92;35.91
56142;BME280;42018;48.588;10.836;2024-03-25T12:26:44;95753.25;;;12.49;36.39
56142;BME280;42018;48.588;10.836;2024-03-25T12:29:29;95745.44;;;12.75;36.96
56142;BME280;42018;48.588;10.836;2024-03-25T12:32:15;95751.53;;;12.76;36.85
56142;BME280;42018;48.588;10.836;2024-03-25T12:35:00;95738.75;;;12.78;35.60
56142;BME280;42018;48.588;10.836;2024-03-25T12:37:47;95727.50;;;12.36;35.44
56142;BME280;42018;48.588;10.836;2024-03-25T12:40:33;95736.22;;;12.28;35.51
56142;BME280;42018;48.588;10.836;2024-03-25T12:43:18;95722.31;;;12.53;35.78
56142;BME280;42018;48.588;10.836;2024-03-25T12:46:04;95713.69;;;12.48;36.50
56142;BME280;42018;48.588;10.836;2024-03-25T12:48:49;95719.53;;;12.58;35.37
56142;BME280;42018;48.588;10.836;2024-03-25T12:51:35;95715.13;;;12.76;35.18
56142;BME280;42018;48.588;10.836;2024-03-25T12:54:20;95708.94;;;13.21;35.27
56142;BME280;42018;48.588;10.836;2024-03-25T12:57:06;95710.50;;;13.61;36.24
56142;BME280;42018;48.588;10.836;2024-03-25T12:59:51;95701.56;;;13.49;34.87
56142;BME280;42018;48.588;10.836;2024-03-25T13:02:37;95688.94;;;13.80;35.00
56142;BME280;42018;48.588;10.836;2024-03-25T13:05:22;95684.72;;;14.23;35.07
56142;BME280;42018;48.588;10.836;2024-03-25T13:08:08;95684.41;;;14.42;34.68
56142;BME280;42018;48.588;10.836;2024-03-25T13:10:54;95678.75;;;13.74;35.21
56142;BME280;42018;48.588;10.836;2024-03-25T13:13:39;95683.22;;;13.07;35.89
56142;BME280;42018;48.588;10.836;2024-03-25T13:16:25;95664.63;;;13.16;35.62
56142;BME280;42018;48.588;10.836;2024-03-25T13:19:11;95658.69;;;13.68;35.33
56142;BME280;42018;48.588;10.836;2024-03-25T13:21:56;95652.41;;;13.55;35.11
56142;BME280;42018;48.588;10.836;2024-03-25T13:24:42;95646.47;;;13.58;34.39
56142;BME280;42018;48.588;10.836;2024-03-25T13:27:28;95639.88;;;13.47;35.75
56142;BME280;42018;48.588;10.836;2024-03-25T13:30:13;95641.34;;;13.22;35.21
56142;BME280;42018;48.588;10.836;2024-03-25T13:32:59;95636.63;;;13.93;34.77
56142;BME280;42018;48.588;10.836;2024-03-25T13:35:45;95620.50;;;14.07;33.26
56142;BME280;42018;48.588;10.836;2024-03-25T13:38:31;95622.22;;;13.85;32.99
56142;BME280;42018;48.588;10.836;2024-03-25T13:41:16;95624.19;;;13.28;33.53
56142;BME280;42018;48.588;10.836;2024-03-25T13:44:05;95603.72;;;14.15;33.46
56142;BME280;42018;48.588;10.836;2024-03-25T13:46:51;95600.75;;;14.17;32.61
56142;BME280;42018;48.588;10.836;2024-03-25T13:49:36;95602.66;;;13.99;31.43
56142;BME280;42018;48.588;10.836;2024-03-25T13:52:23;95598.16;;;14.55;32.33
56142;BME280;42018;48.588;10.836;2024-03-25T13:55:08;95590.53;;;14.27;32.03
56142;BME280;42018;48.588;10.836;2024-03-25T13:57:54;95589.97;;;13.96;30.72
56142;BME280;42018;48.588;10.836;2024-03-25T14:00:40;95578.31;;;14.18;31.08
56142;BME280;42018;48.588;10.836;2024-03-25T14:03:25;95585.41;;;13.96;30.46
56142;BME280;42018;48.588;10.836;2024-03-25T14:06:11;95578.84;;;14.02;31.04
56142;BME280;42018;48.588;10.836;2024-03-25T14:08:56;95579.13;;;13.31;32.33
56142;BME280;42018;48.588;10.836;2024-03-25T14:11:42;95567.56;;;13.88;32.31
56142;BME280;42018;48.588;10.836;2024-03-25T14:14:27;95563.56;;;14.37;31.36
56142;BME280;42018;48.588;10.836;2024-03-25T14:17:13;95558.25;;;14.29;30.96
56142;BME280;42018;48.588;10.836;2024-03-25T14:19:58;95563.78;;;13.28;31.00
56142;BME280;42018;48.588;10.836;2024-03-25T14:22:44;95556.63;;;13.63;32.33
56142;BME280;42018;48.588;10.836;2024-03-25T14:25:29;95549.22;;;13.52;32.27
56142;BME280;42018;48.588;10.836;2024-03-25T14:28:15;95552.84;;;13.47;31.66
56142;BME280;42018;48.588;10.836;2024-03-25T14:31:00;95554.09;;;13.41;32.42
56142;BME280;42018;48.588;10.836;2024-03-25T14:33:46;95548.97;;;12.48;31.73
56142;BME280;42018;48.588;10.836;2024-03-25T14:36:31;95537.78;;;13.16;31.52
56142;BME280;42018;48.588;10.836;2024-03-25T14:39:17;95534.53;;;13.46;30.84
56142;BME280;42018;48.588;10.836;2024-03-25T14:42:03;95520.41;;;13.88;31.13